sensor_id;sensor_type;location;lat;lon;timestamp;temperature;humidity
11666;DHT22;5889;51.350;6.708;2024-01-07T00:00:09;2.30;99.90
11666;DHT22;5889;51.350;6.708;2024-01-07T00:02:36;2.30;99.90
11666;DHT22;5889;51.350;6.708;2024-01-07T00:05:04;2.30;99.90
11666;DHT22;5889;51.350;6.708;2024-01-07T00:07:32;2.30;99.90
11666;DHT22;5889;51.350;6.708;2024-01-07T00:09:59;2.30;99.90
11666;DHT22;5889;51.350;6.708;2024-01-07T00:12:26;2.30;99.90
11666;DHT22;5889;51.350;6.708;2024-01-07T00:14:54;2.30;99.90
11666;DHT22;5889;51.350;6.708;2024-01-07T00:17:21;2.30;99.90
11666;DHT22;5889;51.350;6.708;2024-01-07T00:19:47;2.30;99.90
11666;DHT22;5889;51.350;6.708;2024-01-07T00:22:14;2.40;99.90
11666;DHT22;5889;51.350;6.708;2024-01-07T00:24:43;2.40;99.90
11666;DHT22;5889;51.350;6.708;2024-01-07T00:27:10;2.40;99.90
11666;DHT22;5889;51.350;6.708;2024-01-07T00:29:37;2.50;99.90
11666;DHT22;5889;51.350;6.708;2024-01-07T00:32:04;2.40;99.90
11666;DHT22;5889;51.350;6.708;2024-01-07T00:34:31;2.40;99.90
11666;DHT22;5889;51.350;6.708;2024-01-07T00:36:58;2.40;99.90
11666;DHT22;5889;51.350;6.708;2024-01-07T00:39:25;2.40;99.90
11666;DHT22;5889;51.350;6.708;2024-01-07T00:41:53;2.40;99.90
11666;DHT22;5889;51.350;6.708;2024-01-07T00:44:20;2.40;99.90
11666;DHT22;5889;51.350;6.708;2024-01-07T00:46:47;2.40;99.90
11666;DHT22;5889;51.350;6.708;2024-01-07T00:49:14;2.40;99.90
11666;DHT22;5889;51.350;6.708;2024-01-07T00:51:41;2.40;99.90
11666;DHT22;5889;51.350;6.708;2024-01-07T00:54:07;2.40;99.90
11666;DHT22;5889;51.350;6.708;2024-01-07T00:56:34;2.40;99.90
11666;DHT22;5889;51.350;6.708;2024-01-07T00:59:02;2.50;99.90
11666;DHT22;5889;51.350;6.708;2024-01-07T01:01:29;2.40;99.90
11666;DHT22;5889;51.350;6.708;2024-01-07T01:03:56;2.50;99.90
11666;DHT22;5889;51.350;6.708;2024-01-07T01:06:24;2.40;99.90
11666;DHT22;5889;51.350;6.708;2024-01-07T01:08:51;2.40;99.90
11666;DHT22;5889;51.350;6.708;2024-01-07T01:11:18;2.40;99.90
11666;DHT22;5889;51.350;6.708;2024-01-07T01:13:45;2.40;99.90
11666;DHT22;5889;51.350;6.708;2024-01-07T01:16:13;2.40;99.90
11666;DHT22;5889;51.350;6.708;2024-01-07T01:18:40;2.40;99.90
11666;DHT22;5889;51.350;6.708;2024-01-07T01:21:07;2.40;99.90
11666;DHT22;5889;51.350;6.708;2024-01-07T01:23:34;2.40;99.90
11666;DHT22;5889;51.350;6.708;2024-01-07T01:26:01;2.40;99.90
11666;DHT22;5889;51.350;6.708;2024-01-07T01:28:28;2.40;99.90
11666;DHT22;5889;51.350;6.708;2024-01-07T01:30:55;2.30;99.90
11666;DHT22;5889;51.350;6.708;2024-01-07T01:33:23;2.30;99.90
11666;DHT22;5889;51.350;6.708;2024-01-07T01:35:50;2.40;99.90
11666;DHT22;5889;51.350;6.708;2024-01-07T01:38:17;2.30;99.90
11666;DHT22;5889;51.350;6.708;2024-01-07T01:40:44;2.30;99.90
11666;DHT22;5889;51.350;6.708;2024-01-07T01:43:22;2.40;99.90
11666;DHT22;5889;51.350;6.708;2024-01-07T01:45:49;2.30;99.90
11666;DHT22;5889;51.350;6.708;2024-01-07T01:48:16;2.30;99.90
11666;DHT22;5889;51.350;6.708;2024-01-07T01:50:46;2.30;99.90
11666;DHT22;5889;51.350;6.708;2024-01-07T01:53:13;2.30;99.90
11666;DHT22;5889;51.350;6.708;2024-01-07T01:55:41;2.30;99.90
11666;DHT22;5889;51.350;6.708;2024-01-07T01:58:09;2.30;99.90
11666;DHT22;5889;51.350;6.708;2024-01-07T02:00:36;2.30;99.90
11666;DHT22;5889;51.350;6.708;2024-01-07T02:03:03;2.30;99.90
11666;DHT22;5889;51.350;6.708;2024-01-07T02:05:30;2.40;99.90
11666;DHT22;5889;51.350;6.708;2024-01-07T02:07:59;2.30;99.90
11666;DHT22;5889;51.350;6.708;2024-01-07T02:10:26;2.40;99.90
11666;DHT22;5889;51.350;6.708;2024-01-07T02:12:54;2.30;99.90
11666;DHT22;5889;51.350;6.708;2024-01-07T02:15:21;2.30;99.90
11666;DHT22;5889;51.350;6.708;2024-01-07T02:17:48;2.20;99.90
11666;DHT22;5889;51.350;6.708;2024-01-07T02:20:15;2.20;99.90
11666;DHT22;5889;51.350;6.708;2024-01-07T02:22:42;2.20;99.90
11666;DHT22;5889;51.350;6.708;2024-01-07T02:25:10;2.20;99.90
11666;DHT22;5889;51.350;6.708;2024-01-07T02:27:37;2.20;99.90
11666;DHT22;5889;51.350;6.708;2024-01-07T02:30:05;2.10;99.90
11666;DHT22;5889;51.350;6.708;2024-01-07T02:32:32;2.10;99.90
11666;DHT22;5889;51.350;6.708;2024-01-07T02:35:01;2.10;99.90
11666;DHT22;5889;51.350;6.708;2024-01-07T02:37:28;2.20;99.90
11666;DHT22;5889;51.350;6.708;2024-01-07T02:39:55;2.20;99.90
11666;DHT22;5889;51.350;6.708;2024-01-07T02:42:23;2.20;99.90
11666;DHT22;5889;51.350;6.708;2024-01-07T02:44:50;2.20;99.90
11666;DHT22;5889;51.350;6.708;2024-01-07T02:47:17;2.20;99.90
11666;DHT22;5889;51.350;6.708;2024-01-07T02:49:44;2.30;99.90
11666;DHT22;5889;51.350;6.708;2024-01-07T02:52:11;2.30;99.90
11666;DHT22;5889;51.350;6.708;2024-01-07T02:54:38;2.30;99.90
11666;DHT22;5889;51.350;6.708;2024-01-07T02:57:05;2.20;99.90
11666;DHT22;5889;51.350;6.708;2024-01-07T02:59:33;2.20;99.90
11666;DHT22;5889;51.350;6.708;2024-01-07T03:02:00;2.20;99.90
11666;DHT22;5889;51.350;6.708;2024-01-07T03:04:27;2.20;99.90
11666;DHT22;5889;51.350;6.708;2024-01-07T03:06:54;2.10;99.90
11666;DHT22;5889;51.350;6.708;2024-01-07T03:09:21;2.10;99.90
11666;DHT22;5889;51.350;6.708;2024-01-07T03:11:48;2.20;99.90
11666;DHT22;5889;51.350;6.708;2024-01-07T03:14:15;2.10;99.90
11666;DHT22;5889;51.350;6.708;2024-01-07T03:16:43;2.10;99.90
11666;DHT22;5889;51.350;6.708;2024-01-07T03:19:10;2.10;99.90
11666;DHT22;5889;51.350;6.708;2024-01-07T03:21:37;2.10;99.90
11666;DHT22;5889;51.350;6.708;2024-01-07T03:24:05;2.10;99.90
11666;DHT22;5889;51.350;6.708;2024-01-07T03:26:32;2.10;99.90
11666;DHT22;5889;51.350;6.708;2024-01-07T03:28:59;2.10;99.90
11666;DHT22;5889;51.350;6.708;2024-01-07T03:31:27;2.00;99.90
11666;DHT22;5889;51.350;6.708;2024-01-07T03:33:56;2.10;99.90
11666;DHT22;5889;51.350;6.708;2024-01-07T03:36:22;2.00;99.90
11666;DHT22;5889;51.350;6.708;2024-01-07T03:38:49;2.00;99.90
11666;DHT22;5889;51.350;6.708;2024-01-07T03:41:17;2.00;99.90
11666;DHT22;5889;51.350;6.708;2024-01-07T03:43:44;2.00;99.90
11666;DHT22;5889;51.350;6.708;2024-01-07T03:46:11;2.00;99.90
11666;DHT22;5889;51.350;6.708;2024-01-07T03:48:38;2.00;99.90
11666;DHT22;5889;51.350;6.708;2024-01-07T03:51:07;2.10;99.90
11666;DHT22;5889;51.350;6.708;2024-01-07T03:53:34;2.10;99.90
11666;DHT22;5889;51.350;6.708;2024-01-07T03:56:01;2.10;99.90
11666;DHT22;5889;51.350;6.708;2024-01-07T03:58:28;2.10;99.90
11666;DHT22;5889;51.350;6.708;2024-01-07T04:03:45;1.90;99.90
11666;DHT22;5889;51.350;6.708;2024-01-07T04:06:13;2.00;99.90
11666;DHT22;5889;51.350;6.708;2024-01-07T04:08:40;1.90;99.90
11666;DHT22;5889;51.350;6.708;2024-01-07T04:11:07;1.90;99.90
11666;DHT22;5889;51.350;6.708;2024-01-07T04:13:34;1.90;99.90
11666;DHT22;5889;51.350;6.708;2024-01-07T04:16:01;1.80;99.90
11666;DHT22;5889;51.350;6.708;2024-01-07T04:18:28;1.80;99.90
11666;DHT22;5889;51.350;6.708;2024-01-07T04:20:55;1.80;99.90
11666;DHT22;5889;51.350;6.708;2024-01-07T04:23:23;1.70;99.90
11666;DHT22;5889;51.350;6.708;2024-01-07T04:25:50;1.70;99.90
11666;DHT22;5889;51.350;6.708;2024-01-07T04:28:17;1.60;99.90
11666;DHT22;5889;51.350;6.708;2024-01-07T04:30:44;1.60;99.90
11666;DHT22;5889;51.350;6.708;2024-01-07T04:33:11;1.60;99.90
11666;DHT22;5889;51.350;6.708;2024-01-07T04:35:38;1.60;99.90
11666;DHT22;5889;51.350;6.708;2024-01-07T04:38:04;1.70;99.90
11666;DHT22;5889;51.350;6.708;2024-01-07T04:40:33;1.70;99.90
11666;DHT22;5889;51.350;6.708;2024-01-07T04:43:00;1.70;99.90
11666;DHT22;5889;51.350;6.708;2024-01-07T04:45:26;1.70;99.90
11666;DHT22;5889;51.350;6.708;2024-01-07T04:47:53;1.70;99.90
11666;DHT22;5889;51.350;6.708;2024-01-07T04:50:20;1.70;99.90
11666;DHT22;5889;51.350;6.708;2024-01-07T04:52:48;1.60;99.90
11666;DHT22;5889;51.350;6.708;2024-01-07T04:55:15;1.70;99.90
11666;DHT22;5889;51.350;6.708;2024-01-07T04:57:44;1.60;99.90
11666;DHT22;5889;51.350;6.708;2024-01-07T05:00:12;1.60;99.90
11666;DHT22;5889;51.350;6.708;2024-01-07T05:02:39;1.50;99.90
11666;DHT22;5889;51.350;6.708;2024-01-07T05:05:07;1.50;99.90
11666;DHT22;5889;51.350;6.708;2024-01-07T05:07:34;1.50;99.90
11666;DHT22;5889;51.350;6.708;2024-01-07T05:10:02;1.50;99.90
11666;DHT22;5889;51.350;6.708;2024-01-07T05:12:29;1.40;99.90
11666;DHT22;5889;51.350;6.708;2024-01-07T05:14:57;1.40;99.90
11666;DHT22;5889;51.350;6.708;2024-01-07T05:17:24;1.40;99.90
11666;DHT22;5889;51.350;6.708;2024-01-07T05:19:51;1.40;99.90
11666;DHT22;5889;51.350;6.708;2024-01-07T05:22:18;1.40;99.90
11666;DHT22;5889;51.350;6.708;2024-01-07T05:24:44;1.40;99.90
11666;DHT22;5889;51.350;6.708;2024-01-07T05:27:11;1.40;99.90
11666;DHT22;5889;51.350;6.708;2024-01-07T05:29:39;1.40;99.90
11666;DHT22;5889;51.350;6.708;2024-01-07T05:32:07;1.40;99.90
11666;DHT22;5889;51.350;6.708;2024-01-07T05:34:34;1.40;99.90
11666;DHT22;5889;51.350;6.708;2024-01-07T05:37:01;1.40;99.90
11666;DHT22;5889;51.350;6.708;2024-01-07T05:39:28;1.40;99.90
11666;DHT22;5889;51.350;6.708;2024-01-07T05:41:55;1.40;99.90
11666;DHT22;5889;51.350;6.708;2024-01-07T05:44:22;1.40;99.90
11666;DHT22;5889;51.350;6.708;2024-01-07T05:46:49;1.40;99.90
11666;DHT22;5889;51.350;6.708;2024-01-07T05:49:17;1.40;99.90
11666;DHT22;5889;51.350;6.708;2024-01-07T05:51:44;1.40;99.90
11666;DHT22;5889;51.350;6.708;2024-01-07T05:54:11;1.40;99.90
11666;DHT22;5889;51.350;6.708;2024-01-07T05:56:38;1.30;99.90
11666;DHT22;5889;51.350;6.708;2024-01-07T05:59:06;1.20;99.90
11666;DHT22;5889;51.350;6.708;2024-01-07T06:01:32;1.20;99.90
11666;DHT22;5889;51.350;6.708;2024-01-07T06:04:00;1.20;99.90
11666;DHT22;5889;51.350;6.708;2024-01-07T06:06:29;1.20;99.90
11666;DHT22;5889;51.350;6.708;2024-01-07T06:08:55;1.20;99.90
11666;DHT22;5889;51.350;6.708;2024-01-07T06:11:22;1.20;99.90
11666;DHT22;5889;51.350;6.708;2024-01-07T06:13:49;1.20;99.90
11666;DHT22;5889;51.350;6.708;2024-01-07T06:16:16;1.20;99.90
11666;DHT22;5889;51.350;6.708;2024-01-07T06:18:43;1.30;99.90
11666;DHT22;5889;51.350;6.708;2024-01-07T06:21:10;1.20;99.90
11666;DHT22;5889;51.350;6.708;2024-01-07T06:23:38;1.20;99.90
11666;DHT22;5889;51.350;6.708;2024-01-07T06:26:06;1.20;99.90
11666;DHT22;5889;51.350;6.708;2024-01-07T06:28:35;1.20;99.90
11666;DHT22;5889;51.350;6.708;2024-01-07T06:31:03;1.20;99.90
11666;DHT22;5889;51.350;6.708;2024-01-07T06:33:30;1.20;99.90
11666;DHT22;5889;51.350;6.708;2024-01-07T06:35:57;1.20;99.90
11666;DHT22;5889;51.350;6.708;2024-01-07T06:38:23;1.20;99.90
11666;DHT22;5889;51.350;6.708;2024-01-07T06:40:52;1.10;99.90
11666;DHT22;5889;51.350;6.708;2024-01-07T06:43:19;1.10;99.90
11666;DHT22;5889;51.350;6.708;2024-01-07T06:45:46;1.20;99.90
11666;DHT22;5889;51.350;6.708;2024-01-07T06:48:13;1.20;99.90
11666;DHT22;5889;51.350;6.708;2024-01-07T06:50:40;1.20;99.90
11666;DHT22;5889;51.350;6.708;2024-01-07T06:53:07;1.20;99.90
11666;DHT22;5889;51.350;6.708;2024-01-07T06:55:34;1.20;99.90
11666;DHT22;5889;51.350;6.708;2024-01-07T06:58:03;1.10;99.90
11666;DHT22;5889;51.350;6.708;2024-01-07T07:00:29;1.10;99.90
11666;DHT22;5889;51.350;6.708;2024-01-07T07:02:56;1.10;99.90
11666;DHT22;5889;51.350;6.708;2024-01-07T07:05:23;1.10;99.90
11666;DHT22;5889;51.350;6.708;2024-01-07T07:07:50;1.10;99.90
11666;DHT22;5889;51.350;6.708;2024-01-07T07:10:17;1.10;99.90
11666;DHT22;5889;51.350;6.708;2024-01-07T07:12:44;1.10;99.90
11666;DHT22;5889;51.350;6.708;2024-01-07T07:15:13;1.10;99.90
11666;DHT22;5889;51.350;6.708;2024-01-07T07:17:40;1.10;99.90
11666;DHT22;5889;51.350;6.708;2024-01-07T07:20:07;1.10;99.90
11666;DHT22;5889;51.350;6.708;2024-01-07T07:22:35;1.10;99.90
11666;DHT22;5889;51.350;6.708;2024-01-07T07:25:01;1.10;99.90
11666;DHT22;5889;51.350;6.708;2024-01-07T07:27:28;1.10;99.90
11666;DHT22;5889;51.350;6.708;2024-01-07T07:29:56;1.10;99.90
11666;DHT22;5889;51.350;6.708;2024-01-07T07:32:24;1.20;99.90
11666;DHT22;5889;51.350;6.708;2024-01-07T07:34:51;1.20;99.90
11666;DHT22;5889;51.350;6.708;2024-01-07T07:37:18;1.20;99.90
11666;DHT22;5889;51.350;6.708;2024-01-07T07:39:45;1.20;99.90
11666;DHT22;5889;51.350;6.708;2024-01-07T07:42:12;1.20;99.90
11666;DHT22;5889;51.350;6.708;2024-01-07T07:44:39;1.20;99.90
11666;DHT22;5889;51.350;6.708;2024-01-07T07:47:06;1.20;99.90
11666;DHT22;5889;51.350;6.708;2024-01-07T07:49:35;1.10;99.90
11666;DHT22;5889;51.350;6.708;2024-01-07T07:52:03;1.10;99.90
11666;DHT22;5889;51.350;6.708;2024-01-07T07:54:30;1.20;99.90
11666;DHT22;5889;51.350;6.708;2024-01-07T07:56:56;1.20;99.90
11666;DHT22;5889;51.350;6.708;2024-01-07T07:59:23;1.10;99.90
11666;DHT22;5889;51.350;6.708;2024-01-07T08:01:50;1.00;99.90
11666;DHT22;5889;51.350;6.708;2024-01-07T08:04:17;1.00;99.90
11666;DHT22;5889;51.350;6.708;2024-01-07T08:06:46;1.00;99.90
11666;DHT22;5889;51.350;6.708;2024-01-07T08:09:12;1.00;99.90
11666;DHT22;5889;51.350;6.708;2024-01-07T08:11:39;0.90;99.90
11666;DHT22;5889;51.350;6.708;2024-01-07T08:14:06;1.00;99.90
11666;DHT22;5889;51.350;6.708;2024-01-07T08:16:34;1.00;99.90
11666;DHT22;5889;51.350;6.708;2024-01-07T08:19:01;1.00;99.90
11666;DHT22;5889;51.350;6.708;2024-01-07T08:21:28;1.00;99.90
11666;DHT22;5889;51.350;6.708;2024-01-07T08:23:56;1.00;99.90
11666;DHT22;5889;51.350;6.708;2024-01-07T08:26:23;1.00;99.90
11666;DHT22;5889;51.350;6.708;2024-01-07T08:28:50;1.00;99.90
11666;DHT22;5889;51.350;6.708;2024-01-07T08:31:18;1.00;99.90
11666;DHT22;5889;51.350;6.708;2024-01-07T08:33:45;1.10;99.90
11666;DHT22;5889;51.350;6.708;2024-01-07T08:36:11;1.00;99.90
11666;DHT22;5889;51.350;6.708;2024-01-07T08:38:38;1.00;99.90
11666;DHT22;5889;51.350;6.708;2024-01-07T08:41:07;1.00;99.90
11666;DHT22;5889;51.350;6.708;2024-01-07T08:43:34;1.00;99.90
11666;DHT22;5889;51.350;6.708;2024-01-07T08:46:01;0.90;99.90
11666;DHT22;5889;51.350;6.708;2024-01-07T08:48:30;0.90;99.90
11666;DHT22;5889;51.350;6.708;2024-01-07T08:50:57;0.80;99.90
11666;DHT22;5889;51.350;6.708;2024-01-07T08:53:23;0.80;99.90
11666;DHT22;5889;51.350;6.708;2024-01-07T08:55:51;0.70;99.90
11666;DHT22;5889;51.350;6.708;2024-01-07T08:58:19;0.70;99.90
11666;DHT22;5889;51.350;6.708;2024-01-07T09:00:46;0.70;99.90
11666;DHT22;5889;51.350;6.708;2024-01-07T09:03:13;0.70;99.90
11666;DHT22;5889;51.350;6.708;2024-01-07T09:05:40;0.70;99.90
11666;DHT22;5889;51.350;6.708;2024-01-07T09:08:07;0.70;99.90
11666;DHT22;5889;51.350;6.708;2024-01-07T09:10:36;0.80;99.90
11666;DHT22;5889;51.350;6.708;2024-01-07T09:13:04;0.80;99.90
11666;DHT22;5889;51.350;6.708;2024-01-07T09:15:32;0.80;99.90
11666;DHT22;5889;51.350;6.708;2024-01-07T09:17:59;0.80;99.90
11666;DHT22;5889;51.350;6.708;2024-01-07T09:20:26;0.80;99.90
11666;DHT22;5889;51.350;6.708;2024-01-07T09:22:53;0.80;99.90
11666;DHT22;5889;51.350;6.708;2024-01-07T09:25:20;0.90;99.90
11666;DHT22;5889;51.350;6.708;2024-01-07T09:27:47;0.90;99.90
11666;DHT22;5889;51.350;6.708;2024-01-07T09:30:14;0.90;99.90
11666;DHT22;5889;51.350;6.708;2024-01-07T09:32:42;0.90;99.90
11666;DHT22;5889;51.350;6.708;2024-01-07T09:35:09;0.90;99.90
11666;DHT22;5889;51.350;6.708;2024-01-07T09:37:36;0.90;99.90
11666;DHT22;5889;51.350;6.708;2024-01-07T09:40:04;0.90;99.90
11666;DHT22;5889;51.350;6.708;2024-01-07T09:42:32;0.90;99.90
11666;DHT22;5889;51.350;6.708;2024-01-07T09:45:02;0.90;99.90
11666;DHT22;5889;51.350;6.708;2024-01-07T09:47:30;0.90;99.90
11666;DHT22;5889;51.350;6.708;2024-01-07T09:49:58;0.90;99.90
11666;DHT22;5889;51.350;6.708;2024-01-07T09:52:25;0.90;99.90
11666;DHT22;5889;51.350;6.708;2024-01-07T09:54:56;0.90;99.90
11666;DHT22;5889;51.350;6.708;2024-01-07T09:57:25;0.80;99.90
11666;DHT22;5889;51.350;6.708;2024-01-07T09:59:52;0.80;99.90
11666;DHT22;5889;51.350;6.708;2024-01-07T10:02:20;0.80;99.90
11666;DHT22;5889;51.350;6.708;2024-01-07T10:04:48;0.80;99.90
11666;DHT22;5889;51.350;6.708;2024-01-07T10:07:17;0.80;99.90
11666;DHT22;5889;51.350;6.708;2024-01-07T10:09:44;0.80;99.90
11666;DHT22;5889;51.350;6.708;2024-01-07T10:12:11;0.70;99.90
11666;DHT22;5889;51.350;6.708;2024-01-07T10:14:39;0.70;99.90
11666;DHT22;5889;51.350;6.708;2024-01-07T10:17:14;0.70;99.90
11666;DHT22;5889;51.350;6.708;2024-01-07T10:19:43;0.80;99.90
11666;DHT22;5889;51.350;6.708;2024-01-07T10:22:12;0.80;99.90
11666;DHT22;5889;51.350;6.708;2024-01-07T10:24:42;0.80;99.90
11666;DHT22;5889;51.350;6.708;2024-01-07T10:27:12;0.80;99.90
11666;DHT22;5889;51.350;6.708;2024-01-07T10:29:38;0.70;99.90
11666;DHT22;5889;51.350;6.708;2024-01-07T10:32:06;0.80;99.90
11666;DHT22;5889;51.350;6.708;2024-01-07T10:34:34;0.80;99.90
11666;DHT22;5889;51.350;6.708;2024-01-07T10:37:03;0.70;99.90
11666;DHT22;5889;51.350;6.708;2024-01-07T10:39:30;0.80;99.90
11666;DHT22;5889;51.350;6.708;2024-01-07T10:41:59;0.80;99.90
11666;DHT22;5889;51.350;6.708;2024-01-07T10:44:27;0.80;99.90
11666;DHT22;5889;51.350;6.708;2024-01-07T10:46:54;0.80;99.90
11666;DHT22;5889;51.350;6.708;2024-01-07T10:49:23;0.80;99.90
11666;DHT22;5889;51.350;6.708;2024-01-07T10:52:02;0.90;99.90
11666;DHT22;5889;51.350;6.708;2024-01-07T10:54:31;0.90;99.90
11666;DHT22;5889;51.350;6.708;2024-01-07T10:57:04;1.00;99.90
11666;DHT22;5889;51.350;6.708;2024-01-07T10:59:32;1.00;99.90
11666;DHT22;5889;51.350;6.708;2024-01-07T11:02:00;0.90;99.90
11666;DHT22;5889;51.350;6.708;2024-01-07T11:04:34;0.90;99.90
11666;DHT22;5889;51.350;6.708;2024-01-07T11:07:12;0.90;99.90
11666;DHT22;5889;51.350;6.708;2024-01-07T11:09:54;0.90;99.90
11666;DHT22;5889;51.350;6.708;2024-01-07T11:12:24;0.90;99.90
11666;DHT22;5889;51.350;6.708;2024-01-07T11:14:51;0.90;99.90
11666;DHT22;5889;51.350;6.708;2024-01-07T11:17:40;0.90;99.90
11666;DHT22;5889;51.350;6.708;2024-01-07T11:20:13;0.90;99.90
11666;DHT22;5889;51.350;6.708;2024-01-07T11:22:40;0.80;99.90
11666;DHT22;5889;51.350;6.708;2024-01-07T11:25:28;0.80;99.90
11666;DHT22;5889;51.350;6.708;2024-01-07T11:27:58;0.80;99.90
11666;DHT22;5889;51.350;6.708;2024-01-07T11:30:24;0.80;99.90
11666;DHT22;5889;51.350;6.708;2024-01-07T11:32:57;0.70;99.90
11666;DHT22;5889;51.350;6.708;2024-01-07T11:38:23;0.70;99.90
11666;DHT22;5889;51.350;6.708;2024-01-07T11:40:50;0.70;99.90
11666;DHT22;5889;51.350;6.708;2024-01-07T11:43:19;0.60;99.90
11666;DHT22;5889;51.350;6.708;2024-01-07T11:45:46;0.70;99.90
11666;DHT22;5889;51.350;6.708;2024-01-07T11:48:13;0.70;99.90
11666;DHT22;5889;51.350;6.708;2024-01-07T11:50:41;0.70;99.90
11666;DHT22;5889;51.350;6.708;2024-01-07T11:53:08;0.70;99.90
11666;DHT22;5889;51.350;6.708;2024-01-07T11:55:35;0.70;99.90
11666;DHT22;5889;51.350;6.708;2024-01-07T11:58:02;0.70;99.90
11666;DHT22;5889;51.350;6.708;2024-01-07T12:00:32;0.70;99.90
11666;DHT22;5889;51.350;6.708;2024-01-07T12:02:59;0.70;99.90
11666;DHT22;5889;51.350;6.708;2024-01-07T12:05:27;0.60;99.90
11666;DHT22;5889;51.350;6.708;2024-01-07T12:07:54;0.60;99.90
11666;DHT22;5889;51.350;6.708;2024-01-07T12:10:21;0.60;99.90
11666;DHT22;5889;51.350;6.708;2024-01-07T12:12:48;0.60;99.90
11666;DHT22;5889;51.350;6.708;2024-01-07T12:15:16;0.50;99.90
11666;DHT22;5889;51.350;6.708;2024-01-07T12:17:54;0.50;99.90
11666;DHT22;5889;51.350;6.708;2024-01-07T12:20:21;0.40;99.90
11666;DHT22;5889;51.350;6.708;2024-01-07T12:22:48;0.40;99.90
11666;DHT22;5889;51.350;6.708;2024-01-07T12:25:21;0.30;99.90
11666;DHT22;5889;51.350;6.708;2024-01-07T12:27:49;0.30;99.90
11666;DHT22;5889;51.350;6.708;2024-01-07T12:30:19;0.30;99.90
11666;DHT22;5889;51.350;6.708;2024-01-07T12:32:47;0.30;99.90
11666;DHT22;5889;51.350;6.708;2024-01-07T12:35:14;0.30;99.90
11666;DHT22;5889;51.350;6.708;2024-01-07T12:37:42;0.30;99.90
11666;DHT22;5889;51.350;6.708;2024-01-07T12:40:11;0.20;99.90
11666;DHT22;5889;51.350;6.708;2024-01-07T12:42:38;0.20;99.90
11666;DHT22;5889;51.350;6.708;2024-01-07T12:45:10;0.20;99.90
11666;DHT22;5889;51.350;6.708;2024-01-07T12:47:39;0.20;99.90
11666;DHT22;5889;51.350;6.708;2024-01-07T12:50:08;0.20;99.90
11666;DHT22;5889;51.350;6.708;2024-01-07T12:52:36;0.20;99.90
11666;DHT22;5889;51.350;6.708;2024-01-07T12:55:04;0.20;99.90
11666;DHT22;5889;51.350;6.708;2024-01-07T12:57:32;0.10;99.90
11666;DHT22;5889;51.350;6.708;2024-01-07T12:59:59;0.10;99.90
11666;DHT22;5889;51.350;6.708;2024-01-07T13:02:28;0.10;99.90
11666;DHT22;5889;51.350;6.708;2024-01-07T13:04:59;0.10;99.90
11666;DHT22;5889;51.350;6.708;2024-01-07T13:07:33;0.00;99.90
11666;DHT22;5889;51.350;6.708;2024-01-07T13:10:04;0.00;99.90
11666;DHT22;5889;51.350;6.708;2024-01-07T13:12:31;0.00;99.90
11666;DHT22;5889;51.350;6.708;2024-01-07T13:14:58;0.00;99.90
11666;DHT22;5889;51.350;6.708;2024-01-07T13:17:25;0.00;99.90
11666;DHT22;5889;51.350;6.708;2024-01-07T13:19:52;0.00;99.90
11666;DHT22;5889;51.350;6.708;2024-01-07T13:22:19;0.00;99.90
11666;DHT22;5889;51.350;6.708;2024-01-07T13:24:47;0.00;99.90
11666;DHT22;5889;51.350;6.708;2024-01-07T13:27:15;0.00;99.90
11666;DHT22;5889;51.350;6.708;2024-01-07T13:29:43;-0.10;99.90
11666;DHT22;5889;51.350;6.708;2024-01-07T13:32:12;0.00;99.90
11666;DHT22;5889;51.350;6.708;2024-01-07T13:34:40;-0.10;99.90
11666;DHT22;5889;51.350;6.708;2024-01-07T13:37:07;-0.10;99.90
11666;DHT22;5889;51.350;6.708;2024-01-07T13:39:34;-0.10;99.90
11666;DHT22;5889;51.350;6.708;2024-01-07T13:42:03;-0.10;99.90
11666;DHT22;5889;51.350;6.708;2024-01-07T13:44:30;-0.10;99.90
11666;DHT22;5889;51.350;6.708;2024-01-07T13:47:00;-0.10;99.90
11666;DHT22;5889;51.350;6.708;2024-01-07T13:49:27;-0.10;99.90
11666;DHT22;5889;51.350;6.708;2024-01-07T13:51:54;-0.10;99.90
11666;DHT22;5889;51.350;6.708;2024-01-07T13:54:21;-0.10;99.90
11666;DHT22;5889;51.350;6.708;2024-01-07T13:56:48;-0.20;99.90
11666;DHT22;5889;51.350;6.708;2024-01-07T13:59:17;-0.20;99.90
11666;DHT22;5889;51.350;6.708;2024-01-07T14:01:44;-0.20;99.90
11666;DHT22;5889;51.350;6.708;2024-01-07T14:04:11;-0.20;99.90
11666;DHT22;5889;51.350;6.708;2024-01-07T14:06:38;-0.20;99.90
11666;DHT22;5889;51.350;6.708;2024-01-07T14:09:05;-0.20;99.90
11666;DHT22;5889;51.350;6.708;2024-01-07T14:11:34;-0.10;99.90
11666;DHT22;5889;51.350;6.708;2024-01-07T14:14:01;-0.10;99.90
11666;DHT22;5889;51.350;6.708;2024-01-07T14:16:30;-0.10;99.90
11666;DHT22;5889;51.350;6.708;2024-01-07T14:18:57;-0.10;99.90
11666;DHT22;5889;51.350;6.708;2024-01-07T14:21:24;-0.20;99.90
11666;DHT22;5889;51.350;6.708;2024-01-07T14:23:51;-0.10;99.90
11666;DHT22;5889;51.350;6.708;2024-01-07T14:26:18;-0.10;99.90
11666;DHT22;5889;51.350;6.708;2024-01-07T14:28:48;-0.10;99.90
11666;DHT22;5889;51.350;6.708;2024-01-07T14:31:16;0.00;99.90
11666;DHT22;5889;51.350;6.708;2024-01-07T14:33:44;-0.10;99.90
11666;DHT22;5889;51.350;6.708;2024-01-07T14:36:12;0.00;99.90
11666;DHT22;5889;51.350;6.708;2024-01-07T14:38:42;0.00;99.90
11666;DHT22;5889;51.350;6.708;2024-01-07T14:41:09;0.00;99.90
11666;DHT22;5889;51.350;6.708;2024-01-07T14:43:36;0.00;99.90
11666;DHT22;5889;51.350;6.708;2024-01-07T14:46:03;0.10;99.90
11666;DHT22;5889;51.350;6.708;2024-01-07T14:48:30;0.10;99.90
11666;DHT22;5889;51.350;6.708;2024-01-07T14:50:58;0.10;99.90
11666;DHT22;5889;51.350;6.708;2024-01-07T14:53:25;0.10;99.90
11666;DHT22;5889;51.350;6.708;2024-01-07T14:55:54;0.10;99.90
11666;DHT22;5889;51.350;6.708;2024-01-07T14:58:21;0.20;99.90
11666;DHT22;5889;51.350;6.708;2024-01-07T15:00:49;0.20;99.90
11666;DHT22;5889;51.350;6.708;2024-01-07T15:03:16;0.30;99.90
11666;DHT22;5889;51.350;6.708;2024-01-07T15:05:45;0.30;99.90
11666;DHT22;5889;51.350;6.708;2024-01-07T15:08:13;0.30;99.90
11666;DHT22;5889;51.350;6.708;2024-01-07T15:10:40;0.30;99.90
11666;DHT22;5889;51.350;6.708;2024-01-07T15:13:08;0.40;99.90
11666;DHT22;5889;51.350;6.708;2024-01-07T15:15:35;0.40;99.90
11666;DHT22;5889;51.350;6.708;2024-01-07T15:18:03;0.40;99.90
11666;DHT22;5889;51.350;6.708;2024-01-07T15:20:30;0.30;99.90
11666;DHT22;5889;51.350;6.708;2024-01-07T15:22:57;0.40;99.90
11666;DHT22;5889;51.350;6.708;2024-01-07T15:25:25;0.40;99.90
11666;DHT22;5889;51.350;6.708;2024-01-07T15:27:52;0.40;99.90
11666;DHT22;5889;51.350;6.708;2024-01-07T15:30:19;0.40;99.90
11666;DHT22;5889;51.350;6.708;2024-01-07T15:32:46;0.30;99.90
11666;DHT22;5889;51.350;6.708;2024-01-07T15:35:14;0.30;99.90
11666;DHT22;5889;51.350;6.708;2024-01-07T15:37:41;0.30;99.90
11666;DHT22;5889;51.350;6.708;2024-01-07T15:40:09;0.30;99.90
11666;DHT22;5889;51.350;6.708;2024-01-07T15:42:38;0.40;99.90
11666;DHT22;5889;51.350;6.708;2024-01-07T15:45:05;0.30;99.90
11666;DHT22;5889;51.350;6.708;2024-01-07T15:47:37;0.40;99.90
11666;DHT22;5889;51.350;6.708;2024-01-07T15:50:05;0.40;99.90
11666;DHT22;5889;51.350;6.708;2024-01-07T15:52:32;0.40;99.90
11666;DHT22;5889;51.350;6.708;2024-01-07T15:54:59;0.40;99.90
11666;DHT22;5889;51.350;6.708;2024-01-07T15:57:26;0.40;99.90
11666;DHT22;5889;51.350;6.708;2024-01-07T15:59:54;0.40;99.90
11666;DHT22;5889;51.350;6.708;2024-01-07T16:02:21;0.40;99.90
11666;DHT22;5889;51.350;6.708;2024-01-07T16:04:48;0.30;99.90
11666;DHT22;5889;51.350;6.708;2024-01-07T16:07:15;0.30;99.90